Airfield :
LOGIN :

Register | Disclaimer

   EN    FR    IT 

 










Legend :    VFR   Marginal VFR   IFR   Intensive IFR   Very Intensive IFR
Visi :
Ceiling :
>= 8 km
>= 3000ft
5 to 8 km
1000 to 3000 ft
1500m to 5 km
500 to 1000 ft
800 to 1500m
200 to 500 ft
< 800m
< 200 ft
Symbols :   Thunderstorms  Fog  Heavy snow  Heavy precipitations  Wind > 20 kt
SIGMETs :     Misc.  Thunderstorms  Icing  Turbulence  Mountain Waves  Volcanic Ashes






- Airport Elevation : 433 ft
- IATA code : CCF


LFMK - Carcassonne

CURRENT METAR :
  • 122100Z AUTO 28007KT 9999 BKN029 BKN058 BKN068 09/08 Q1007

EXPIRED METARs :
  • 122030Z AUTO 27006KT 9999 BKN029 BKN039 OVC058 09/08 Q1007
  • 122000Z AUTO 27007KT 9999 FEW021 SCT026 BKN031 09/08 Q1007
  • 121930Z AUTO 26006KT 9999 FEW011/// BKN022/// OVC036/// ///TCU 09/08 Q1007
  • 121900Z AUTO 28008KT 9999 -RA FEW018/// BKN027/// OVC042/// ///TCU 09/08 Q1007
  • 121830Z AUTO 30013KT 7000 RA BKN018/// BKN026/// BKN034/// ///TCU 09/08 Q1008

TAF TAF LFMK
Valid from the 12 at 15:00 until the 13 at 15:00 UTC


121400Z 1215/1315 29015KT 9999 FEW025 BKN045
TEMPO 1215/1218 29018G30KT SHRA BKN023TCU
PROB30
TEMPO 1218/1222 -SHRA BKN018TCU
BECMG 1302/1304 26005KT
BECMG 1308/1310 30015KT
TEMPO 1310/1314 BKN014



MET'MAP, your aeronautical weather chart ! - Copyright ORBIFLY December 2007 - Disclaimer

ORBIFLY MET'MAP TEAM :

Programming & Development : Alexandra Zaïnal
Concept & Development : Baudouin d'Aumeries
Co-Development & Prog : Marc-Olivier Méhu
Technical & hardware support : Manuel Goepfert

Contact : metmap@orbifly.com




SOURCES & CREDITS :

   NOAA